sim
Sign-in with your pilot id or email,
or register
Callsign
Passwort

Schedule Details

Flight Number: RYR1075 (2)
Departure: Hamburg Airport (EDDH) at 05:50
Arrival: Marrakesh Menara Airport (GMMX) at 09:00
Route: Ryanair Passenger Schedule. Enter filed route here before submitting Pirep.

Weather Information
Getting current METAR information for EDDH 241420Z 19003KT 9999 -RA FEW011 BKN014 03/02 Q0997 TEMPO 4500 -RASN
Getting current METAR information for GMMX 241400Z 04005KT 300V090 9999 SCT100 SCT200 20/02 Q1021 NOSIG

Schedule Frequency

Route Map